createdAt,value
2023-02-20T00:00:59.430Z,59.14
2023-02-20T00:03:33.070Z,59.78
2023-02-20T00:06:07.204Z,59.26
2023-02-20T00:08:41.584Z,59.63
2023-02-20T00:11:15.101Z,59.48
2023-02-20T00:13:51.135Z,59.50
2023-02-20T00:16:24.718Z,59.63
2023-02-20T00:18:58.196Z,60.05
2023-02-20T00:21:32.029Z,60.50
2023-02-20T00:24:05.802Z,60.82
2023-02-20T00:26:39.860Z,60.94
2023-02-20T00:29:13.670Z,61.07
2023-02-20T00:31:52.241Z,61.27
2023-02-20T00:34:28.722Z,60.99
2023-02-20T00:37:02.320Z,61.02
2023-02-20T00:39:36.981Z,60.96
2023-02-20T00:42:12.007Z,60.69
2023-02-20T00:44:45.660Z,60.66
2023-02-20T00:47:19.261Z,60.74
2023-02-20T00:49:53.194Z,60.66
2023-02-20T00:52:26.621Z,60.84
2023-02-20T00:55:00.131Z,61.20
2023-02-20T00:57:33.657Z,60.79
2023-02-20T01:00:11.377Z,60.66
2023-02-20T01:02:45.007Z,60.84
2023-02-20T01:05:18.905Z,60.45
2023-02-20T01:07:52.962Z,61.03
2023-02-20T01:10:26.602Z,61.31
2023-02-20T01:13:00.811Z,61.21
2023-02-20T01:15:35.093Z,61.33
2023-02-20T01:18:08.681Z,61.37
2023-02-20T01:20:42.754Z,61.43
2023-02-20T01:23:16.676Z,61.43
2023-02-20T01:25:50.620Z,61.28
2023-02-20T01:28:24.205Z,61.38
2023-02-20T01:30:58.247Z,61.44
2023-02-20T01:33:32.371Z,61.13
2023-02-20T01:36:07.073Z,61.04
2023-02-20T01:38:42.055Z,60.84
2023-02-20T01:41:16.129Z,61.39
2023-02-20T01:43:51.577Z,61.08
2023-02-20T01:46:54.343Z,60.70
2023-02-20T01:49:32.487Z,60.69
2023-02-20T01:52:11.564Z,60.97
2023-02-20T01:54:48.723Z,61.06
2023-02-20T01:57:25.268Z,61.13
2023-02-20T02:00:03.631Z,61.24
2023-02-20T02:02:39.418Z,61.56
2023-02-20T02:05:14.362Z,61.48
2023-02-20T02:07:49.935Z,61.56
2023-02-20T02:10:29.516Z,61.47
2023-02-20T02:13:03.155Z,61.86
2023-02-20T02:15:38.892Z,61.56
2023-02-20T02:18:35.851Z,61.96
2023-02-20T02:21:39.751Z,61.64
2023-02-20T02:24:52.473Z,62.04
2023-02-20T02:27:48.294Z,61.94
2023-02-20T02:30:46.823Z,62.32
2023-02-20T02:33:58.003Z,61.96
2023-02-20T02:36:57.963Z,61.84
2023-02-20T02:39:38.112Z,62.07
2023-02-20T02:42:23.615Z,61.64
2023-02-20T02:45:01.511Z,62.05
2023-02-20T02:47:39.037Z,62.32
2023-02-20T02:50:18.143Z,62.39
2023-02-20T02:52:53.982Z,62.39
2023-02-20T02:55:30.144Z,62.21
2023-02-20T02:58:04.484Z,62.35
2023-02-20T03:00:42.688Z,62.24
2023-02-20T03:03:20.813Z,62.00
2023-02-20T03:05:57.317Z,62.24
2023-02-20T03:08:34.138Z,62.33
2023-02-20T03:11:15.103Z,62.20
2023-02-20T03:14:09.218Z,62.17
2023-02-20T03:16:47.976Z,61.95
2023-02-20T03:19:26.922Z,61.88
2023-02-20T03:22:01.115Z,62.17
2023-02-20T03:24:55.608Z,61.66
2023-02-20T03:27:39.872Z,61.57
2023-02-20T03:30:16.986Z,61.35
2023-02-20T03:33:05.527Z,60.99
2023-02-20T03:35:59.697Z,61.03
2023-02-20T03:38:53.249Z,60.94
2023-02-20T03:41:45.171Z,61.06
2023-02-20T03:44:20.303Z,60.90
2023-02-20T03:46:54.891Z,61.17
2023-02-20T03:49:32.052Z,61.38
2023-02-20T03:52:05.143Z,60.98
2023-02-20T03:54:39.570Z,61.32
2023-02-20T03:57:16.430Z,61.44
2023-02-20T03:59:52.679Z,61.41
2023-02-20T04:02:27.913Z,61.49
2023-02-20T04:05:06.055Z,61.43
2023-02-20T04:07:42.998Z,61.44
2023-02-20T04:10:15.305Z,61.83
2023-02-20T04:12:49.296Z,61.76
2023-02-20T04:15:24.318Z,61.85
2023-02-20T04:18:00.819Z,62.01
2023-02-20T04:20:34.553Z,62.29
2023-02-20T04:23:17.663Z,62.14
2023-02-20T04:25:52.722Z,62.28
2023-02-20T04:28:27.196Z,62.23
2023-02-20T04:31:01.045Z,61.91
2023-02-20T04:33:36.958Z,61.82
2023-02-20T04:36:12.262Z,61.92
2023-02-20T04:38:46.028Z,61.76
2023-02-20T04:41:19.924Z,60.99
2023-02-20T04:44:13.976Z,60.87
2023-02-20T04:46:49.003Z,60.82
2023-02-20T04:49:22.734Z,60.58
2023-02-20T04:51:58.981Z,60.32
2023-02-20T04:54:32.753Z,60.10
2023-02-20T04:57:06.379Z,59.53
2023-02-20T04:59:40.421Z,59.32
2023-02-20T05:02:13.985Z,59.29
2023-02-20T05:04:48.056Z,59.27
2023-02-20T05:07:22.214Z,59.29
2023-02-20T05:09:56.232Z,59.36
2023-02-20T05:12:30.442Z,59.03
2023-02-20T05:15:04.015Z,58.72
2023-02-20T05:17:39.600Z,58.65
2023-02-20T05:20:15.208Z,58.57
2023-02-20T05:22:52.018Z,58.82
2023-02-20T05:25:23.808Z,58.27
2023-02-20T05:27:57.393Z,58.63
2023-02-20T05:30:31.098Z,58.35
2023-02-20T05:33:04.587Z,58.28
2023-02-20T05:35:40.362Z,58.27
2023-02-20T05:38:14.019Z,58.06
2023-02-20T05:40:49.073Z,58.03
2023-02-20T05:43:23.039Z,57.63
2023-02-20T05:45:58.645Z,57.92
2023-02-20T05:48:34.401Z,57.74
2023-02-20T05:51:08.590Z,57.31
2023-02-20T05:53:42.909Z,57.43
2023-02-20T05:56:17.535Z,56.85
2023-02-20T05:58:51.729Z,56.90
2023-02-20T06:01:26.920Z,56.52
2023-02-20T06:04:03.721Z,56.23
2023-02-20T06:06:38.998Z,55.33
2023-02-20T06:09:13.629Z,54.59
2023-02-20T06:11:52.970Z,54.38
2023-02-20T06:14:28.088Z,53.89
2023-02-20T06:17:02.407Z,53.61
2023-02-20T06:19:35.882Z,53.57
2023-02-20T06:22:09.696Z,52.97
2023-02-20T06:24:45.539Z,52.75
2023-02-20T06:27:19.685Z,52.39
2023-02-20T06:29:53.328Z,52.24
2023-02-20T06:32:26.814Z,51.74
2023-02-20T06:35:02.120Z,51.26
2023-02-20T06:37:35.942Z,51.18
2023-02-20T06:40:11.554Z,51.32
2023-02-20T06:42:45.495Z,51.14
2023-02-20T06:45:19.092Z,51.21
2023-02-20T06:47:52.790Z,51.19
2023-02-20T06:50:27.211Z,51.32
2023-02-20T06:53:01.074Z,51.30
2023-02-20T06:55:36.121Z,50.96
2023-02-20T06:58:12.794Z,50.71
2023-02-20T07:00:47.998Z,50.80
2023-02-20T07:03:21.784Z,50.49
2023-02-20T07:05:55.671Z,50.08
2023-02-20T07:08:29.720Z,49.71
2023-02-20T07:11:03.515Z,48.57
2023-02-20T07:13:36.923Z,46.83
2023-02-20T07:16:12.617Z,45.68
2023-02-20T07:18:46.760Z,44.84
2023-02-20T07:21:20.717Z,44.45
2023-02-20T07:23:54.253Z,43.99
2023-02-20T07:26:30.937Z,43.86
2023-02-20T07:29:02.843Z,44.31
2023-02-20T07:31:36.503Z,43.89
2023-02-20T07:34:10.556Z,41.77
2023-02-20T07:36:45.112Z,37.66
2023-02-20T07:39:18.720Z,34.08
2023-02-20T07:41:55.489Z,30.95
2023-02-20T07:44:29.471Z,27.90
2023-02-20T07:47:03.091Z,25.50
2023-02-20T07:49:38.155Z,23.80
2023-02-20T07:52:12.026Z,21.83
2023-02-20T07:54:46.120Z,20.68
2023-02-20T07:57:20.472Z,19.46
2023-02-20T07:59:54.056Z,18.06
2023-02-20T08:02:28.106Z,17.35
2023-02-20T08:05:02.146Z,16.24
2023-02-20T08:07:35.920Z,17.25
2023-02-20T08:10:10.947Z,18.33
2023-02-20T08:12:44.850Z,19.59
2023-02-20T08:15:19.472Z,21.01
2023-02-20T08:17:53.486Z,22.22
2023-02-20T08:20:26.999Z,23.53
2023-02-20T08:23:01.268Z,24.69
2023-02-20T08:25:36.018Z,25.73
2023-02-20T08:28:09.792Z,26.67
2023-02-20T08:30:43.457Z,27.64
2023-02-20T08:33:17.260Z,28.61
2023-02-20T08:35:57.092Z,29.22
2023-02-20T08:38:33.040Z,30.07
2023-02-20T08:41:09.108Z,30.96
2023-02-20T08:43:44.457Z,31.70
2023-02-20T08:46:18.113Z,32.51
2023-02-20T08:48:51.805Z,33.12
2023-02-20T08:51:27.012Z,34.09
2023-02-20T08:54:00.607Z,34.87
2023-02-20T08:56:34.295Z,35.58
2023-02-20T08:59:08.004Z,35.93
2023-02-20T09:01:46.072Z,36.75
2023-02-20T09:04:21.585Z,37.24
2023-02-20T09:06:56.029Z,37.45
2023-02-20T09:09:30.576Z,37.59
2023-02-20T09:12:04.196Z,37.66
2023-02-20T09:14:38.372Z,37.62
2023-02-20T09:17:12.856Z,37.76
2023-02-20T09:19:47.177Z,37.64
2023-02-20T09:22:25.694Z,37.70
2023-02-20T09:25:00.802Z,37.72
2023-02-20T09:27:34.539Z,37.97
2023-02-20T09:30:09.112Z,38.40
2023-02-20T09:32:44.536Z,38.64
2023-02-20T09:35:22.256Z,38.80
2023-02-20T09:37:56.664Z,39.31
2023-02-20T09:40:35.317Z,39.73
2023-02-20T09:43:25.394Z,39.82
2023-02-20T09:46:05.237Z,40.34
2023-02-20T09:48:47.660Z,40.03
2023-02-20T09:51:23.607Z,40.21
2023-02-20T09:54:03.197Z,40.45
2023-02-20T09:56:40.522Z,40.56
2023-02-20T09:59:17.409Z,40.40
2023-02-20T10:01:57.823Z,40.05
2023-02-20T10:04:35.779Z,40.46
2023-02-20T10:07:18.818Z,40.28
2023-02-20T10:09:52.610Z,40.40
2023-02-20T10:12:32.099Z,40.06
2023-02-20T10:15:21.706Z,39.96
2023-02-20T10:18:21.835Z,39.72
2023-02-20T10:21:03.553Z,40.01
2023-02-20T10:23:44.373Z,40.39
2023-02-20T10:26:23.219Z,40.58
2023-02-20T10:28:56.983Z,40.80
2023-02-20T10:31:36.380Z,40.83
2023-02-20T10:34:15.543Z,40.75
2023-02-20T10:36:52.468Z,40.98
2023-02-20T10:39:28.599Z,40.84
2023-02-20T10:42:05.449Z,40.79
2023-02-20T10:44:51.715Z,40.29
2023-02-20T10:47:29.368Z,40.08
2023-02-20T10:50:07.260Z,39.83
2023-02-20T10:52:48.739Z,39.70
2023-02-20T10:55:27.844Z,40.02
2023-02-20T10:58:05.323Z,39.88
2023-02-20T11:00:42.504Z,39.60
2023-02-20T11:03:19.438Z,39.13
2023-02-20T11:05:57.021Z,39.22
2023-02-20T11:08:30.549Z,39.26
2023-02-20T11:11:14.808Z,39.18
2023-02-20T11:13:48.579Z,39.01
2023-02-20T11:16:26.825Z,38.96
2023-02-20T11:19:08.108Z,38.86
2023-02-20T11:21:47.421Z,38.84
2023-02-20T11:24:43.280Z,38.83
2023-02-20T11:27:20.043Z,38.83
2023-02-20T11:29:58.815Z,39.11
2023-02-20T11:32:45.098Z,39.44
2023-02-20T11:35:35.469Z,39.94
2023-02-20T11:38:33.988Z,39.88
2023-02-20T11:41:12.259Z,39.51
2023-02-20T11:44:01.024Z,39.09
2023-02-20T11:46:35.225Z,39.15
2023-02-20T11:49:10.514Z,39.14
2023-02-20T11:51:45.711Z,39.05
2023-02-20T11:54:21.719Z,38.87
2023-02-20T11:57:03.762Z,38.99
2023-02-20T11:59:40.371Z,39.03
2023-02-20T12:02:31.281Z,39.14
2023-02-20T12:05:16.716Z,39.26
2023-02-20T12:07:59.532Z,39.61
2023-02-20T12:10:39.596Z,39.62
2023-02-20T12:13:15.907Z,39.71
2023-02-20T12:15:53.761Z,39.68
2023-02-20T12:18:52.124Z,39.76
2023-02-20T12:21:34.060Z,39.98
2023-02-20T12:24:19.193Z,40.32
2023-02-20T12:27:00.254Z,40.23
2023-02-20T12:29:45.775Z,40.34
2023-02-20T12:32:37.194Z,40.63
2023-02-20T12:35:34.822Z,40.94
2023-02-20T12:38:24.752Z,41.49
2023-02-20T12:41:15.728Z,41.78
2023-02-20T12:43:57.446Z,42.14
2023-02-20T12:46:45.466Z,42.59
2023-02-20T12:49:28.165Z,42.89
2023-02-20T12:52:07.554Z,43.15
2023-02-20T12:54:48.917Z,43.12
2023-02-20T12:57:36.651Z,43.56
2023-02-20T13:00:35.648Z,43.79
2023-02-20T13:03:21.213Z,44.30
2023-02-20T13:06:01.842Z,44.44
2023-02-20T13:08:38.757Z,44.68
2023-02-20T13:11:27.642Z,44.91
2023-02-20T13:14:18.399Z,45.11
2023-02-20T13:17:04.644Z,45.29
2023-02-20T13:19:44.018Z,45.61
2023-02-20T13:22:19.089Z,45.94
2023-02-20T13:24:53.728Z,46.04
2023-02-20T13:27:39.024Z,46.30
2023-02-20T13:30:23.133Z,46.66
2023-02-20T13:33:15.681Z,46.81
2023-02-20T13:35:56.826Z,47.59
2023-02-20T13:38:31.302Z,47.51
2023-02-20T13:41:12.224Z,47.45
2023-02-20T13:43:45.719Z,47.60
2023-02-20T13:46:26.011Z,47.54
2023-02-20T13:49:00.051Z,47.57
2023-02-20T13:51:38.282Z,47.77
2023-02-20T13:54:28.757Z,47.95
2023-02-20T13:57:11.279Z,48.02
2023-02-20T13:59:45.089Z,48.31
2023-02-20T14:02:25.670Z,48.33
2023-02-20T14:05:02.824Z,48.48
2023-02-20T14:07:49.639Z,48.58
2023-02-20T14:10:30.877Z,48.93
2023-02-20T14:13:08.046Z,48.97
2023-02-20T14:15:50.943Z,49.28
2023-02-20T14:18:28.740Z,49.36
2023-02-20T14:21:10.520Z,49.78
2023-02-20T14:23:44.710Z,49.84
2023-02-20T14:26:25.066Z,50.05
2023-02-20T14:29:02.629Z,50.14
2023-02-20T14:31:37.939Z,50.58
2023-02-20T14:34:18.375Z,50.65
2023-02-20T14:37:04.036Z,50.76
2023-02-20T14:39:54.547Z,50.91
2023-02-20T14:42:28.966Z,50.97
2023-02-20T14:45:04.634Z,51.25
2023-02-20T14:47:38.132Z,51.17
2023-02-20T14:50:22.297Z,51.44
2023-02-20T14:53:16.679Z,51.59
2023-02-20T14:55:53.091Z,51.39
2023-02-20T14:58:29.315Z,51.56
2023-02-20T15:01:04.298Z,51.70
2023-02-20T15:03:37.975Z,51.80
2023-02-20T15:06:18.107Z,51.79
2023-02-20T15:08:51.667Z,51.79
2023-02-20T15:11:26.688Z,52.03
2023-02-20T15:14:01.241Z,52.05
2023-02-20T15:16:40.464Z,52.23
2023-02-20T15:19:29.193Z,52.44
2023-02-20T15:22:03.058Z,52.41
2023-02-20T15:24:42.057Z,52.54
2023-02-20T15:27:19.677Z,52.74
2023-02-20T15:30:12.555Z,52.93
2023-02-20T15:32:54.421Z,53.02
2023-02-20T15:35:31.015Z,53.18
2023-02-20T15:38:06.142Z,53.37
2023-02-20T15:40:42.118Z,53.41
2023-02-20T15:43:38.106Z,53.74
2023-02-20T15:46:18.607Z,53.75
2023-02-20T15:48:56.855Z,53.92
2023-02-20T15:51:31.189Z,53.99
2023-02-20T15:54:10.847Z,54.14
2023-02-20T15:56:44.632Z,54.22
2023-02-20T15:59:21.509Z,54.28
2023-02-20T16:01:58.320Z,54.25
2023-02-20T16:04:33.824Z,54.30
2023-02-20T16:07:07.571Z,54.32
2023-02-20T16:09:41.669Z,54.21
2023-02-20T16:12:21.071Z,54.14
2023-02-20T16:14:55.022Z,54.09
2023-02-20T16:17:32.991Z,54.11
2023-02-20T16:20:20.392Z,54.10
2023-02-20T16:22:53.964Z,53.90
2023-02-20T16:25:30.127Z,53.79
2023-02-20T16:28:05.414Z,53.55
2023-02-20T16:30:41.145Z,53.53
2023-02-20T16:33:18.304Z,53.38
2023-02-20T16:35:55.347Z,53.46
2023-02-20T16:38:35.234Z,53.43
2023-02-20T16:41:18.945Z,53.24
2023-02-20T16:43:53.770Z,53.48
2023-02-20T16:46:38.329Z,53.49
2023-02-20T16:49:13.397Z,53.79
2023-02-20T16:51:51.497Z,54.35
2023-02-20T16:54:25.542Z,54.67
2023-02-20T16:56:59.973Z,55.16
2023-02-20T16:59:33.646Z,55.12
2023-02-20T17:02:08.730Z,55.22
2023-02-20T17:04:46.165Z,55.60
2023-02-20T17:07:20.965Z,55.85
2023-02-20T17:09:59.614Z,56.13
2023-02-20T17:12:35.330Z,56.47
2023-02-20T17:15:12.374Z,57.08
2023-02-20T17:17:47.932Z,57.23
2023-02-20T17:20:25.769Z,57.72
2023-02-20T17:23:04.865Z,57.74
2023-02-20T17:25:38.721Z,58.19
2023-02-20T17:28:16.231Z,58.43
2023-02-20T17:30:55.284Z,58.72
2023-02-20T17:33:29.291Z,58.99
2023-02-20T17:36:09.355Z,59.32
2023-02-20T17:38:47.135Z,59.43
2023-02-20T17:41:22.227Z,59.19
2023-02-20T17:43:58.683Z,59.31
2023-02-20T17:46:33.200Z,59.24
2023-02-20T17:49:07.121Z,59.30
2023-02-20T17:51:40.728Z,59.66
2023-02-20T17:54:14.968Z,59.88
2023-02-20T17:56:51.878Z,60.31
2023-02-20T17:59:26.505Z,60.81
2023-02-20T18:02:02.379Z,60.58
2023-02-20T18:04:36.024Z,60.72
2023-02-20T18:07:11.237Z,60.41
2023-02-20T18:09:50.161Z,60.48
2023-02-20T18:12:24.052Z,60.67
2023-02-20T18:14:58.234Z,60.72
2023-02-20T18:17:36.542Z,60.61
2023-02-20T18:20:13.753Z,60.78
2023-02-20T18:22:48.841Z,60.88
2023-02-20T18:25:39.636Z,60.81
2023-02-20T18:28:15.141Z,61.13
2023-02-20T18:30:50.607Z,61.35
2023-02-20T18:33:25.062Z,61.55
2023-02-20T18:36:19.703Z,61.58
2023-02-20T18:38:53.440Z,61.89
2023-02-20T18:41:27.189Z,62.13
2023-02-20T18:44:03.309Z,62.41
2023-02-20T18:46:44.163Z,62.44
2023-02-20T18:49:20.398Z,62.74
2023-02-20T18:51:59.088Z,62.74
2023-02-20T18:54:39.404Z,63.08
2023-02-20T18:57:14.678Z,63.09
2023-02-20T18:59:48.754Z,63.28
2023-02-20T19:02:23.085Z,63.25
2023-02-20T19:04:59.325Z,63.27
2023-02-20T19:07:33.388Z,63.17
2023-02-20T19:10:08.039Z,63.24
2023-02-20T19:12:42.038Z,63.35
2023-02-20T19:15:16.047Z,63.46
2023-02-20T19:17:53.735Z,63.01
2023-02-20T19:20:29.510Z,63.11
2023-02-20T19:23:05.163Z,63.20
2023-02-20T19:25:39.527Z,63.38
2023-02-20T19:28:13.777Z,63.27
2023-02-20T19:30:47.617Z,63.11
2023-02-20T19:33:21.776Z,63.48
2023-02-20T19:35:56.645Z,63.40
2023-02-20T19:38:33.068Z,63.15
2023-02-20T19:41:06.868Z,63.32
2023-02-20T19:43:40.433Z,63.48
2023-02-20T19:46:19.749Z,63.28
2023-02-20T19:48:54.411Z,63.04
2023-02-20T19:51:28.146Z,63.30
2023-02-20T19:54:02.007Z,63.35
2023-02-20T19:56:36.183Z,63.13
2023-02-20T19:59:11.120Z,62.95
2023-02-20T20:01:48.279Z,62.95
2023-02-20T20:04:26.270Z,62.99
2023-02-20T20:07:00.733Z,62.50
2023-02-20T20:09:37.465Z,62.53
2023-02-20T20:12:31.988Z,62.39
2023-02-20T20:15:08.045Z,62.26
2023-02-20T20:17:43.596Z,62.00
2023-02-20T20:20:26.544Z,61.63
2023-02-20T20:23:04.406Z,61.26
2023-02-20T20:25:43.959Z,61.33
2023-02-20T20:28:18.293Z,61.26
2023-02-20T20:30:54.328Z,61.75
2023-02-20T20:33:28.370Z,61.84
2023-02-20T20:36:02.495Z,62.09
2023-02-20T20:38:36.314Z,61.97
2023-02-20T20:41:12.344Z,61.89
2023-02-20T20:43:48.676Z,61.86
2023-02-20T20:46:25.025Z,62.00
2023-02-20T20:48:59.346Z,61.81
2023-02-20T20:51:36.082Z,62.06
2023-02-20T20:54:09.888Z,61.41
2023-02-20T20:56:49.877Z,61.70
2023-02-20T20:59:26.351Z,61.43
2023-02-20T21:02:01.298Z,61.40
2023-02-20T21:04:34.792Z,61.05
2023-02-20T21:07:08.713Z,61.28
2023-02-20T21:09:43.045Z,61.67
2023-02-20T21:12:17.773Z,61.21
2023-02-20T21:14:54.612Z,61.35
2023-02-20T21:17:26.440Z,61.58
2023-02-20T21:20:04.630Z,61.27
2023-02-20T21:22:38.458Z,61.41
2023-02-20T21:25:13.064Z,61.36
2023-02-20T21:27:46.832Z,61.28
2023-02-20T21:30:20.438Z,61.22
2023-02-20T21:32:54.278Z,60.94
2023-02-20T21:35:28.861Z,61.31
2023-02-20T21:38:06.919Z,61.03
2023-02-20T21:40:40.909Z,61.42
2023-02-20T21:43:31.892Z,60.89
2023-02-20T21:46:06.287Z,60.52
2023-02-20T21:48:39.878Z,60.63
2023-02-20T21:51:13.837Z,60.00
2023-02-20T21:53:47.911Z,59.72
2023-02-20T21:56:21.738Z,59.41
2023-02-20T21:59:04.336Z,59.04
2023-02-20T22:01:40.603Z,59.03
2023-02-20T22:04:14.165Z,58.74
2023-02-20T22:07:05.856Z,59.01
2023-02-20T22:09:56.630Z,59.38
2023-02-20T22:12:47.658Z,58.95
2023-02-20T22:15:38.164Z,59.02
2023-02-20T22:18:29.146Z,58.39
2023-02-20T22:21:19.737Z,58.20
2023-02-20T22:24:11.495Z,58.35
2023-02-20T22:27:02.278Z,58.03
2023-02-20T22:29:52.689Z,58.07
2023-02-20T22:32:44.162Z,58.05
2023-02-20T22:35:35.511Z,58.85
2023-02-20T22:38:29.426Z,58.79
2023-02-20T22:41:20.228Z,58.72
2023-02-20T22:44:10.851Z,58.59
2023-02-20T22:47:01.694Z,58.55
2023-02-20T22:49:52.174Z,58.75
2023-02-20T22:52:42.540Z,58.87
2023-02-20T22:55:33.842Z,58.52
2023-02-20T22:58:25.370Z,58.67
2023-02-20T23:01:16.338Z,58.95
2023-02-20T23:04:07.540Z,59.35
2023-02-20T23:06:57.827Z,59.49
2023-02-20T23:09:48.441Z,59.25
2023-02-20T23:12:38.983Z,59.10
2023-02-20T23:15:30.169Z,59.37
2023-02-20T23:18:20.689Z,59.37
2023-02-20T23:21:12.377Z,59.46
2023-02-20T23:24:03.567Z,59.33
2023-02-20T23:26:54.708Z,59.48
2023-02-20T23:29:45.282Z,59.43
2023-02-20T23:32:35.772Z,59.51
2023-02-20T23:35:29.246Z,58.87
2023-02-20T23:38:21.711Z,58.80
2023-02-20T23:41:12.624Z,58.81
2023-02-20T23:44:03.266Z,58.27
2023-02-20T23:46:53.959Z,57.62
2023-02-20T23:49:44.814Z,56.77
2023-02-20T23:52:35.746Z,55.21
2023-02-20T23:55:30.704Z,54.68
2023-02-20T23:58:24.579Z,54.09
